sim
Sign-in with your pilot id or email,
or register
Callsign
Passwort

Schedule Details

Flight Number: OEO1982
Departure: Frankfurt Airport (EDDF) at 10:10
Arrival: Munich Airport (EDDM) at 11:20

Weather Information
Getting current METAR information for EDDF 250950Z 21009KT 9999 -SHRA FEW013 SCT018TCU BKN026 11/08 Q1000 NOSIG
Getting current METAR information for EDDM 250950Z 27007KT 230V290 9999 -RA FEW011 SCT020 10/08 Q1003 NOSIG

Schedule Frequency

Route Map